Time;durP1;ratioP1;P1;durP2;ratioP2;P2;SDS_P1;SDS_P2;PMS_P1;PMS_P2;Temp;Humidity;BMP_temperature;BMP_pressure;BME280_temperature;BME280_humidity;BME280_pressure;Samples;Min_cycle;Max_cycle;Signal;HPM_P1;HPM_P2
2020/12/15 00:02:11;;;;;;;94.50;52.67;;;5.10;99.90;;;;;;5075235;28;20426;-80
2020/12/15 00:04:37;;;;;;;107.10;60.40;;;5.20;99.90;;;;;;5075352;28;20372;-79
2020/12/15 00:07:03;;;;;;;94.10;50.17;;;5.20;99.90;;;;;;5093695;28;20772;-80
2020/12/15 00:09:29;;;;;;;103.25;61.38;;;5.20;99.90;;;;;;5093232;28;20387;-80
2020/12/15 00:11:57;;;;;;;92.57;53.90;;;5.20;99.90;;;;;;5074997;28;20373;-80
2020/12/15 00:14:22;;;;;;;97.60;53.50;;;5.20;99.90;;;;;;5092985;28;20368;-80
2020/12/15 00:16:48;;;;;;;101.00;57.93;;;5.20;99.90;;;;;;5091657;28;20739;-80
2020/12/15 00:19:14;;;;;;;111.50;62.38;;;5.20;99.90;;;;;;5092760;28;20384;-80
2020/12/15 00:21:43;;;;;;;117.78;64.45;;;5.20;99.90;;;;;;5092795;28;20361;-79
2020/12/15 00:24:09;;;;;;;126.68;61.03;;;5.20;99.90;;;;;;5092625;28;20368;-81
2020/12/15 00:26:35;;;;;;;110.38;60.63;;;5.30;99.90;;;;;;5074504;28;20368;-81
2020/12/15 00:29:01;;;;;;;109.83;62.23;;;5.30;99.90;;;;;;5092596;28;20715;-81
2020/12/15 00:31:34;;;;;;;100.67;57.00;;;5.30;99.90;;;;;;5092343;28;20360;-81
2020/12/15 00:34:01;;;;;;;88.60;51.42;;;5.30;99.90;;;;;;5092524;28;20859;-81
2020/12/15 00:36:27;;;;;;;98.32;53.03;;;5.30;99.90;;;;;;5092701;28;20392;-83
2020/12/15 00:38:53;;;;;;;104.68;58.28;;;5.30;99.90;;;;;;5074547;28;20372;-82
2020/12/15 00:41:18;;;;;;;105.82;57.42;;;5.30;99.90;;;;;;5073158;28;20415;-75
2020/12/15 00:43:44;;;;;;;102.23;54.37;;;5.20;99.90;;;;;;5091998;28;20425;-81
2020/12/15 00:46:16;;;;;;;105.33;55.23;;;5.30;99.90;;;;;;5092096;28;20364;-80
2020/12/15 00:48:42;;;;;;;102.07;56.42;;;5.30;99.90;;;;;;5092861;28;20360;-80
2020/12/15 00:51:17;;;;;;;98.35;53.47;;;5.20;99.90;;;;;;5092380;28;20360;-79
2020/12/15 00:53:44;;;;;;;105.25;53.58;;;5.30;99.90;;;;;;5074357;28;20379;-80
2020/12/15 00:56:10;;;;;;;113.93;58.80;;;5.30;99.90;;;;;;5092247;28;20448;-80
2020/12/15 00:58:36;;;;;;;114.30;58.05;;;5.30;99.90;;;;;;5092556;28;20364;-80
2020/12/15 01:01:07;;;;;;;103.63;56.17;;;5.30;99.90;;;;;;5092283;28;20396;-80
2020/12/15 01:03:33;;;;;;;102.33;53.33;;;5.30;99.90;;;;;;5092770;28;20375;-80
2020/12/15 01:05:59;;;;;;;116.78;58.25;;;5.30;99.90;;;;;;5092348;28;20352;-80
2020/12/15 01:08:25;;;;;;;105.13;55.65;;;5.30;99.90;;;;;;5074165;28;20425;-80
2020/12/15 01:10:51;;;;;;;103.00;54.22;;;5.30;99.90;;;;;;5092543;28;20408;-80
2020/12/15 01:13:17;;;;;;;109.80;54.58;;;5.30;99.90;;;;;;5092529;28;20368;-80
2020/12/15 01:15:43;;;;;;;108.38;52.58;;;5.30;99.90;;;;;;5092236;28;20368;-81
2020/12/15 01:18:09;;;;;;;102.23;53.70;;;5.30;99.90;;;;;;5074134;28;20875;-81
2020/12/15 01:20:35;;;;;;;110.57;56.70;;;5.30;99.90;;;;;;5092456;28;20881;-81
2020/12/15 01:23:01;;;;;;;112.25;56.22;;;5.30;99.90;;;;;;5092161;28;20364;-81
2020/12/15 01:25:26;;;;;;;108.25;55.05;;;5.30;99.90;;;;;;5092375;28;20363;-81
2020/12/15 01:27:52;;;;;;;110.82;55.92;;;5.30;99.90;;;;;;5092163;28;20827;-81
2020/12/15 01:30:18;;;;;;;103.10;55.03;;;5.30;99.90;;;;;;5092362;28;20406;-81
2020/12/15 01:32:44;;;;;;;114.45;58.47;;;5.30;99.90;;;;;;5092113;28;20357;-81
2020/12/15 01:35:10;;;;;;;122.22;58.20;;;5.30;99.90;;;;;;5070472;28;20390;-81
2020/12/15 01:37:36;;;;;;;116.90;60.37;;;5.30;99.90;;;;;;5070545;28;20440;-81
2020/12/15 01:40:03;;;;;;;112.50;57.03;;;5.30;99.90;;;;;;5072046;28;20393;-81
2020/12/15 01:42:29;;;;;;;116.80;57.83;;;5.30;99.90;;;;;;5072753;28;20503;-81
2020/12/15 01:44:56;;;;;;;101.22;51.10;;;5.30;99.90;;;;;;5075592;28;20457;-81
2020/12/15 01:47:22;;;;;;;99.15;51.95;;;5.30;99.90;;;;;;5075743;28;20370;-81
2020/12/15 01:49:48;;;;;;;100.05;51.65;;;5.30;99.90;;;;;;5075802;28;20366;-81
2020/12/15 01:52:15;;;;;;;98.50;53.30;;;5.30;99.90;;;;;;5075541;28;20457;-81
2020/12/15 01:54:41;;;;;;;107.32;55.92;;;5.30;99.90;;;;;;5075518;28;20362;-81
2020/12/15 01:57:08;;;;;;;111.35;58.85;;;5.30;99.90;;;;;;5074148;28;20808;-81
2020/12/15 01:59:34;;;;;;;103.30;56.70;;;5.20;99.90;;;;;;5073962;28;20389;-81
2020/12/15 02:02:00;;;;;;;118.70;64.20;;;5.30;99.90;;;;;;5075533;28;20366;-81
2020/12/15 02:04:25;;;;;;;108.20;56.43;;;5.30;99.90;;;;;;5075329;28;20448;-81
2020/12/15 02:06:52;;;;;;;111.53;59.57;;;5.30;99.90;;;;;;5073998;28;20729;-81
2020/12/15 02:09:19;;;;;;;97.80;52.65;;;5.30;99.90;;;;;;5073845;28;21250;-80
2020/12/15 02:11:46;;;;;;;102.03;55.42;;;5.30;99.90;;;;;;5073921;28;20409;-80
2020/12/15 02:14:13;;;;;;;100.30;53.83;;;5.30;99.90;;;;;;5075150;28;20374;-80
2020/12/15 02:16:40;;;;;;;102.88;55.72;;;5.30;99.90;;;;;;5075347;28;20460;-80
2020/12/15 02:19:17;;;;;;;93.90;52.90;;;5.30;99.90;;;;;;5075239;28;20374;-80
2020/12/15 02:22:01;;;;;;;95.20;52.58;;;5.30;99.90;;;;;;5073909;28;20420;-80
2020/12/15 02:24:28;;;;;;;84.80;46.83;;;5.30;99.90;;;;;;5073694;28;20388;-80
2020/12/15 02:26:55;;;;;;;89.25;49.13;;;5.30;99.90;;;;;;5074861;28;20938;-80
2020/12/15 02:29:21;;;;;;;83.78;47.35;;;5.30;99.90;;;;;;5074839;28;20435;-80
2020/12/15 02:31:48;;;;;;;82.43;48.78;;;5.30;99.90;;;;;;5073541;28;20379;-80
2020/12/15 02:34:15;;;;;;;81.90;48.03;;;5.30;99.90;;;;;;5085502;28;20385;-81
2020/12/15 02:36:42;;;;;;;115.55;48.88;;;5.30;99.90;;;;;;5095013;28;20361;-79
2020/12/15 02:39:18;;;;;;;79.68;46.78;;;5.30;99.90;;;;;;5094792;28;20369;-79
2020/12/15 02:41:50;;;;;;;84.03;47.53;;;5.30;99.90;;;;;;5077369;28;20360;-78
2020/12/15 02:44:16;;;;;;;78.97;47.08;;;5.30;99.90;;;;;;5094837;28;20357;-79
2020/12/15 02:46:42;;;;;;;76.82;45.00;;;5.30;99.90;;;;;;5076658;28;20764;-79
2020/12/15 02:49:08;;;;;;;80.25;47.10;;;5.30;99.90;;;;;;5094607;28;20371;-78
2020/12/15 02:51:33;;;;;;;85.60;47.35;;;5.30;99.90;;;;;;5076705;28;20357;-79
2020/12/15 02:53:59;;;;;;;81.03;46.40;;;5.20;99.90;;;;;;5094672;28;20723;-79
2020/12/15 02:56:26;;;;;;;82.88;48.45;;;5.30;99.90;;;;;;5095092;28;20422;-79
2020/12/15 02:58:55;;;;;;;90.68;49.00;;;5.20;99.90;;;;;;5094509;28;20353;-80
2020/12/15 03:01:21;;;;;;;85.68;48.53;;;5.30;99.90;;;;;;5076675;28;20372;-79
2020/12/15 03:03:47;;;;;;;91.37;51.47;;;5.30;99.90;;;;;;5094408;28;20348;-79
2020/12/15 03:06:13;;;;;;;87.13;50.10;;;5.20;99.90;;;;;;5076221;28;20426;-79
2020/12/15 03:08:39;;;;;;;227.40;68.13;;;5.30;99.90;;;;;;5094349;28;20367;-80
2020/12/15 03:11:05;;;;;;;98.15;53.85;;;5.30;99.90;;;;;;5094647;28;20373;-79
2020/12/15 03:13:32;;;;;;;94.15;51.17;;;5.30;99.90;;;;;;5094199;28;20407;-80
2020/12/15 03:15:58;;;;;;;90.93;52.42;;;5.30;99.90;;;;;;5094318;28;20360;-80
2020/12/15 03:18:24;;;;;;;125.40;65.00;;;5.30;99.90;;;;;;5076020;28;20521;-81
2020/12/15 03:20:52;;;;;;;108.63;59.47;;;5.30;99.90;;;;;;5075726;28;20395;-80
2020/12/15 03:23:20;;;;;;;102.03;55.58;;;5.30;99.90;;;;;;5094250;28;20365;-79
2020/12/15 03:25:46;;;;;;;94.50;54.03;;;5.30;99.90;;;;;;5093950;28;20378;-80
2020/12/15 03:28:11;;;;;;;95.38;53.20;;;5.30;99.90;;;;;;5076413;28;20398;-80
2020/12/15 03:30:37;;;;;;;94.35;52.75;;;5.30;99.90;;;;;;5094096;28;20376;-80
2020/12/15 03:33:04;;;;;;;97.38;53.72;;;5.30;99.90;;;;;;5075674;28;20372;-79
2020/12/15 03:35:32;;;;;;;97.53;54.93;;;5.30;99.90;;;;;;5093835;28;20380;-80
2020/12/15 03:37:58;;;;;;;107.07;58.25;;;5.30;99.90;;;;;;5093609;28;20859;-80
2020/12/15 03:40:24;;;;;;;138.23;60.60;;;5.30;99.90;;;;;;5093650;28;20396;-80
2020/12/15 03:42:50;;;;;;;109.75;56.70;;;5.30;99.90;;;;;;5093792;28;20452;-78
2020/12/15 03:45:16;;;;;;;106.68;59.30;;;5.30;99.90;;;;;;5094014;28;20364;-79
2020/12/15 03:47:43;;;;;;;95.47;54.83;;;5.30;99.90;;;;;;5093440;28;20364;-78
2020/12/15 03:50:09;;;;;;;102.60;59.28;;;5.30;99.90;;;;;;5093594;28;20364;-78
2020/12/15 03:52:38;;;;;;;103.00;56.75;;;5.30;99.90;;;;;;5093490;28;20453;-79
2020/12/15 03:55:05;;;;;;;99.35;55.40;;;5.30;99.90;;;;;;5093464;28;20361;-79
2020/12/15 03:57:31;;;;;;;91.13;51.70;;;5.30;99.90;;;;;;5093493;28;20400;-79
2020/12/15 03:59:57;;;;;;;91.22;49.63;;;5.30;99.90;;;;;;5093779;28;20465;-80
2020/12/15 04:02:23;;;;;;;101.07;53.95;;;5.30;99.90;;;;;;5093262;28;20794;-80
2020/12/15 04:04:50;;;;;;;93.30;50.97;;;5.30;99.90;;;;;;5093158;28;20447;-80
2020/12/15 04:07:15;;;;;;;88.38;50.30;;;5.30;99.90;;;;;;5093471;28;20356;-80
2020/12/15 04:09:41;;;;;;;88.33;51.80;;;5.30;99.90;;;;;;5093328;28;20387;-80
2020/12/15 04:12:07;;;;;;;96.22;52.55;;;5.20;99.90;;;;;;5093181;28;20720;-80
2020/12/15 04:14:33;;;;;;;89.03;51.38;;;5.30;99.90;;;;;;5074782;28;20388;-80
2020/12/15 04:16:59;;;;;;;99.45;55.90;;;5.20;99.90;;;;;;5075265;28;20469;-80
2020/12/15 04:19:25;;;;;;;91.47;53.05;;;5.20;99.90;;;;;;5092860;28;20541;-79
2020/12/15 04:21:51;;;;;;;103.22;54.38;;;5.30;99.90;;;;;;5092971;28;20361;-80
2020/12/15 04:24:16;;;;;;;90.38;50.65;;;5.30;99.90;;;;;;5074653;28;20425;-81
2020/12/15 04:26:42;;;;;;;482.05;268.33;;;5.30;99.90;;;;;;5074686;28;20369;-81
2020/12/15 04:29:08;;;;;;;570.20;323.42;;;5.30;99.90;;;;;;5092701;28;20357;-81
2020/12/15 04:31:34;;;;;;;230.18;110.50;;;5.30;99.90;;;;;;5093082;28;20364;-81
2020/12/15 04:33:59;;;;;;;127.25;66.30;;;5.20;99.90;;;;;;5074415;28;21250;-81
2020/12/15 04:36:25;;;;;;;104.65;56.28;;;5.20;99.90;;;;;;5092670;28;20357;-81
2020/12/15 04:38:51;;;;;;;100.38;55.00;;;5.20;99.90;;;;;;5092705;28;20361;-81
2020/12/15 04:41:17;;;;;;;96.90;53.97;;;5.30;99.90;;;;;;5092469;28;20396;-81
2020/12/15 04:43:44;;;;;;;96.43;53.35;;;5.20;99.90;;;;;;5074570;28;20449;-81
2020/12/15 04:46:20;;;;;;;97.77;55.00;;;5.20;99.90;;;;;;5092650;28;20368;-81
2020/12/15 04:49:04;;;;;;;106.93;56.63;;;5.20;99.90;;;;;;5092528;28;20369;-81
2020/12/15 04:51:54;;;;;;;115.32;59.13;;;5.20;99.90;;;;;;5074332;28;20379;-81
2020/12/15 04:54:34;;;;;;;108.63;57.60;;;5.20;99.90;;;;;;5092698;28;20846;-81
2020/12/15 04:57:02;;;;;;;96.32;57.35;;;5.30;99.90;;;;;;5092494;28;20421;-81
2020/12/15 04:59:31;;;;;;;105.53;57.70;;;5.30;99.90;;;;;;5092275;28;20866;-81
2020/12/15 05:01:58;;;;;;;132.57;64.45;;;5.20;99.90;;;;;;5092442;28;20768;-81
2020/12/15 05:04:25;;;;;;;129.07;60.38;;;5.20;99.90;;;;;;5092328;28;20357;-80
2020/12/15 05:06:54;;;;;;;103.30;59.53;;;5.30;99.90;;;;;;5092370;28;20819;-80
2020/12/15 05:09:33;;;;;;;110.72;62.20;;;5.30;99.90;;;;;;5092159;28;21184;-81
2020/12/15 05:11:59;;;;;;;117.65;63.88;;;5.30;99.90;;;;;;5092232;28;20421;-81
2020/12/15 05:14:25;;;;;;;153.32;71.97;;;5.30;99.90;;;;;;5092230;28;20368;-80
2020/12/15 05:16:52;;;;;;;126.47;68.65;;;5.30;99.90;;;;;;5074149;28;20379;-80
2020/12/15 05:19:18;;;;;;;118.07;64.93;;;5.30;99.90;;;;;;5096122;28;20375;-80
2020/12/15 05:22:00;;;;;;;104.28;61.92;;;5.30;99.90;;;;;;5096562;28;20642;-80
2020/12/15 05:24:29;;;;;;;113.88;63.53;;;5.30;99.90;;;;;;5096270;28;20360;-80
2020/12/15 05:26:59;;;;;;;118.55;65.50;;;5.30;99.90;;;;;;5096292;28;20364;-80
2020/12/15 05:29:26;;;;;;;110.15;62.15;;;5.20;99.90;;;;;;5078528;28;20396;-80
2020/12/15 05:31:52;;;;;;;110.30;63.55;;;5.30;99.90;;;;;;5096092;28;20371;-81
2020/12/15 05:34:26;;;;;;;135.60;71.53;;;5.30;99.90;;;;;;5096043;28;20414;-79
2020/12/15 05:36:58;;;;;;;120.50;67.25;;;5.30;99.90;;;;;;5095915;28;20371;-80
2020/12/15 05:39:25;;;;;;;129.05;75.25;;;5.30;99.90;;;;;;5077746;28;20978;-80
2020/12/15 05:42:05;;;;;;;125.28;70.95;;;5.30;99.90;;;;;;5095942;28;20384;-80
2020/12/15 05:44:32;;;;;;;108.05;63.83;;;5.20;99.90;;;;;;5096038;28;20352;-80
2020/12/15 05:47:05;;;;;;;125.22;71.30;;;5.30;99.90;;;;;;5095850;28;20364;-80
2020/12/15 05:49:33;;;;;;;120.35;68.15;;;5.20;99.90;;;;;;5095720;28;20392;-80
2020/12/15 05:52:00;;;;;;;123.65;68.40;;;5.20;99.90;;;;;;5095717;28;20422;-80
2020/12/15 05:54:27;;;;;;;113.88;63.25;;;5.20;99.90;;;;;;5077500;28;20407;-80
2020/12/15 05:57:04;;;;;;;108.22;61.63;;;5.20;99.90;;;;;;5077836;28;20377;-80
2020/12/15 05:59:30;;;;;;;115.47;64.85;;;5.20;99.90;;;;;;5077274;28;20392;-78
2020/12/15 06:02:16;;;;;;;125.90;70.63;;;5.20;99.90;;;;;;5095659;28;20460;-80
2020/12/15 06:04:42;;;;;;;129.77;72.45;;;5.20;99.90;;;;;;5077076;28;20455;-80
2020/12/15 06:07:10;;;;;;;119.70;68.82;;;5.20;99.90;;;;;;5095418;28;20463;-80
2020/12/15 06:09:36;;;;;;;130.15;77.85;;;5.20;99.90;;;;;;5077216;28;20425;-80
2020/12/15 06:12:05;;;;;;;128.90;81.00;;;5.20;99.90;;;;;;5095313;28;21228;-80
2020/12/15 06:14:31;;;;;;;132.55;92.63;;;5.20;99.90;;;;;;5095253;28;20368;-80
2020/12/15 06:16:57;;;;;;;122.00;74.70;;;5.20;99.90;;;;;;5095146;28;20372;-80
2020/12/15 06:19:24;;;;;;;129.00;72.88;;;5.20;99.90;;;;;;5095294;28;20399;-80
2020/12/15 06:21:56;;;;;;;120.43;71.43;;;5.20;99.90;;;;;;5076920;28;20859;-80
2020/12/15 06:24:37;;;;;;;114.50;69.03;;;5.20;99.90;;;;;;5077151;28;20380;-80
2020/12/15 06:27:05;;;;;;;118.53;70.80;;;5.20;99.90;;;;;;5076916;28;21069;-80
2020/12/15 06:29:31;;;;;;;125.93;72.63;;;5.20;99.90;;;;;;5094861;28;20368;-80
2020/12/15 06:31:59;;;;;;;129.48;74.25;;;5.20;99.90;;;;;;5095126;28;20364;-80
2020/12/15 06:34:27;;;;;;;134.00;82.97;;;5.20;99.90;;;;;;5075903;28;20408;-80
2020/12/15 06:36:55;;;;;;;151.57;89.37;;;5.20;99.90;;;;;;5075648;28;20368;-80
2020/12/15 06:39:25;;;;;;;148.27;89.45;;;5.20;99.90;;;;;;5075469;28;20372;-81
2020/12/15 06:42:02;;;;;;;150.10;89.35;;;5.20;99.90;;;;;;5094005;28;20414;-80
2020/12/15 06:44:33;;;;;;;162.23;93.18;;;5.20;99.90;;;;;;5093516;28;20434;-80
2020/12/15 06:47:00;;;;;;;154.30;92.65;;;5.20;99.90;;;;;;5075543;28;20364;-80
2020/12/15 06:49:33;;;;;;;159.77;90.10;;;5.20;99.90;;;;;;5075468;28;20368;-80
2020/12/15 06:52:03;;;;;;;156.00;91.35;;;5.20;99.90;;;;;;5093599;28;20373;-80
2020/12/15 06:54:30;;;;;;;161.88;93.32;;;5.20;99.90;;;;;;5093557;28;20398;-80
2020/12/15 06:57:00;;;;;;;161.45;94.97;;;5.20;99.90;;;;;;5075313;28;20377;-79
2020/12/15 06:59:30;;;;;;;157.40;88.13;;;5.20;99.90;;;;;;5093274;28;20380;-80
2020/12/15 07:02:16;;;;;;;154.13;85.53;;;5.20;99.90;;;;;;5075182;28;20418;-80
2020/12/15 07:04:48;;;;;;;145.97;82.93;;;5.30;99.90;;;;;;5093640;28;20361;-80
2020/12/15 07:07:15;;;;;;;149.10;81.40;;;5.20;99.90;;;;;;5075157;28;20376;-80
2020/12/15 07:09:43;;;;;;;161.98;93.82;;;5.30;99.90;;;;;;5075170;28;20384;-80
2020/12/15 07:12:13;;;;;;;175.93;102.22;;;5.30;99.90;;;;;;5075010;28;20847;-80
2020/12/15 07:14:43;;;;;;;176.80;99.70;;;5.30;99.90;;;;;;5093218;28;21032;-81
2020/12/15 07:17:09;;;;;;;191.02;116.10;;;5.20;99.90;;;;;;5075074;28;20368;-81
2020/12/15 07:19:35;;;;;;;177.02;104.57;;;5.30;99.90;;;;;;5093053;28;20412;-80
2020/12/15 07:22:05;;;;;;;168.03;99.63;;;5.30;99.90;;;;;;5093074;28;20839;-80
2020/12/15 07:24:31;;;;;;;158.02;89.40;;;5.30;99.90;;;;;;5074807;28;20400;-80
2020/12/15 07:26:59;;;;;;;150.70;87.50;;;5.30;99.90;;;;;;5093381;28;20847;-80
2020/12/15 07:29:25;;;;;;;149.60;84.50;;;5.30;99.90;;;;;;5092790;28;20360;-80
2020/12/15 07:31:50;;;;;;;151.27;84.95;;;5.30;99.90;;;;;;5074783;28;20414;-80
2020/12/15 07:34:17;;;;;;;146.25;83.57;;;5.30;99.90;;;;;;5033448;28;1678777;-80
2020/12/15 07:36:48;;;;;;;161.35;91.72;;;5.30;99.90;;;;;;5075617;28;20380;-80
2020/12/15 07:39:15;;;;;;;153.13;85.30;;;5.30;99.90;;;;;;5075368;28;20852;-80
2020/12/15 07:41:42;;;;;;;166.13;94.93;;;5.40;99.90;;;;;;5092789;28;20365;-80
2020/12/15 07:44:10;;;;;;;151.90;87.38;;;5.30;99.90;;;;;;5093743;28;20455;-80
2020/12/15 07:46:37;;;;;;;156.20;83.50;;;5.30;99.90;;;;;;5093643;28;20352;-80
2020/12/15 07:49:04;;;;;;;137.57;77.72;;;5.40;99.90;;;;;;5093424;28;20368;-80
2020/12/15 07:51:32;;;;;;;128.63;74.55;;;5.30;99.90;;;;;;5093376;28;20365;-80
2020/12/15 07:53:59;;;;;;;149.90;86.55;;;5.40;99.90;;;;;;5075282;28;20716;-81
2020/12/15 07:56:28;;;;;;;169.93;100.20;;;5.40;99.90;;;;;;5093279;28;20452;-80
2020/12/15 07:58:55;;;;;;;156.63;93.38;;;5.40;99.90;;;;;;5093309;28;20371;-81
2020/12/15 08:01:33;;;;;;;150.90;88.85;;;5.40;99.90;;;;;;5093112;28;20392;-81
2020/12/15 08:04:20;;;;;;;137.10;83.50;;;5.40;99.90;;;;;;5093651;28;20361;-80
2020/12/15 08:06:47;;;;;;;136.57;83.43;;;5.40;99.90;;;;;;5074848;28;20368;-79
2020/12/15 08:09:16;;;;;;;157.48;90.65;;;5.50;99.90;;;;;;5093134;28;20360;-80
2020/12/15 08:11:48;;;;;;;125.10;75.05;;;5.50;99.90;;;;;;5093248;28;21191;-80
2020/12/15 08:14:16;;;;;;;126.78;74.30;;;5.50;99.90;;;;;;5093061;28;20368;-80
2020/12/15 08:16:43;;;;;;;127.55;76.97;;;5.60;99.90;;;;;;5092924;28;20444;-80
2020/12/15 08:19:10;;;;;;;131.35;79.85;;;5.60;99.90;;;;;;5074722;28;20364;-80
2020/12/15 08:21:45;;;;;;;111.28;66.22;;;5.60;99.90;;;;;;5093160;28;20815;-80
2020/12/15 08:24:12;;;;;;;107.30;64.68;;;5.70;99.90;;;;;;5092799;28;20364;-80
2020/12/15 08:26:40;;;;;;;101.13;62.47;;;5.70;99.90;;;;;;5092901;28;20422;-80
2020/12/15 08:29:07;;;;;;;111.68;66.50;;;5.70;99.90;;;;;;5092739;28;20364;-80
2020/12/15 08:31:35;;;;;;;105.80;62.47;;;5.70;99.90;;;;;;5092892;28;20372;-81
2020/12/15 08:34:01;;;;;;;102.43;60.78;;;5.70;99.90;;;;;;5092527;28;20412;-81
2020/12/15 08:36:27;;;;;;;96.68;59.88;;;5.80;99.90;;;;;;5092705;28;20375;-80
2020/12/15 08:38:55;;;;;;;79.90;49.63;;;5.80;99.90;;;;;;5074553;28;20376;-81
2020/12/15 08:41:22;;;;;;;75.90;48.33;;;5.80;99.90;;;;;;5092583;28;20458;-80
2020/12/15 08:43:49;;;;;;;78.95;49.28;;;5.80;99.90;;;;;;5092600;28;20727;-81
2020/12/15 08:46:17;;;;;;;68.88;43.50;;;5.90;99.90;;;;;;5074092;28;20412;-80
2020/12/15 08:48:43;;;;;;;75.80;49.22;;;5.90;99.90;;;;;;5074433;28;20716;-80
2020/12/15 08:51:13;;;;;;;74.03;46.05;;;5.90;99.90;;;;;;5092188;28;20383;-81
2020/12/15 08:53:40;;;;;;;72.45;49.10;;;6.00;99.90;;;;;;5092601;28;20379;-81
2020/12/15 08:56:13;;;;;;;83.27;51.97;;;6.00;99.90;;;;;;5074263;28;20373;-81
2020/12/15 08:58:39;;;;;;;70.95;47.00;;;6.00;99.90;;;;;;5073773;28;20389;-80
2020/12/15 09:01:05;;;;;;;66.45;44.65;;;6.00;99.90;;;;;;5092209;28;20385;-81
2020/12/15 09:03:35;;;;;;;67.40;44.37;;;6.00;99.90;;;;;;5092107;28;20353;-80
2020/12/15 09:06:00;;;;;;;65.32;44.20;;;6.00;99.90;;;;;;5092301;28;20361;-81
2020/12/15 09:08:27;;;;;;;58.95;40.28;;;6.10;99.90;;;;;;5073603;28;20372;-81
2020/12/15 09:10:55;;;;;;;65.60;43.17;;;6.10;99.90;;;;;;5092671;28;20383;-80
2020/12/15 09:13:22;;;;;;;77.00;44.00;;;6.10;99.90;;;;;;5092223;28;20383;-80
2020/12/15 09:15:53;;;;;;;103.18;41.47;;;6.20;99.90;;;;;;5092236;28;20394;-79
2020/12/15 09:18:38;;;;;;;76.93;41.10;;;6.40;99.90;;;;;;5074105;28;20422;-78
2020/12/15 09:21:16;;;;;;;1506.97;909.20;;;6.60;99.90;;;;;;5092110;28;20380;-78
2020/12/15 09:23:52;;;;;;;448.65;304.55;;;6.70;99.90;;;;;;5074037;28;20788;-78
2020/12/15 09:26:19;;;;;;;397.35;307.90;;;6.90;99.90;;;;;;5091975;28;20359;-78
2020/12/15 09:28:45;;;;;;;187.25;113.32;;;7.20;99.90;;;;;;5091977;28;20870;-78
2020/12/15 09:31:15;;;;;;;62.05;40.08;;;7.40;99.90;;;;;;5073987;28;20408;-83
2020/12/15 09:33:42;;;;;;;75.45;54.92;;;7.60;99.90;;;;;;5073831;28;20384;-82
2020/12/15 09:36:08;;;;;;;84.17;54.90;;;7.30;99.90;;;;;;5073948;28;20459;-83
2020/12/15 09:38:34;;;;;;;86.95;57.88;;;7.20;99.90;;;;;;5092003;28;20851;-82
2020/12/15 09:41:00;;;;;;;67.70;48.38;;;7.10;99.90;;;;;;5091843;28;20415;-82
2020/12/15 09:43:26;;;;;;;59.63;41.45;;;6.90;99.90;;;;;;5074258;28;20428;-82
2020/12/15 09:45:51;;;;;;;58.42;39.85;;;6.80;99.90;;;;;;5091715;28;20836;-83
2020/12/15 09:48:18;;;;;;;68.50;47.10;;;6.70;99.90;;;;;;5092439;28;20420;-83
2020/12/15 09:50:44;;;;;;;67.00;43.88;;;6.80;99.90;;;;;;5073423;28;20399;-83
2020/12/15 09:53:10;;;;;;;70.95;48.97;;;6.70;99.90;;;;;;5073519;28;20373;-82
2020/12/15 09:55:35;;;;;;;67.78;45.22;;;6.70;99.90;;;;;;5073439;28;20364;-83
2020/12/15 09:58:01;;;;;;;165.65;110.72;;;6.70;99.90;;;;;;5091833;28;20383;-81
2020/12/15 10:00:27;;;;;;;96.63;63.17;;;6.80;99.90;;;;;;5073666;28;20471;-83
2020/12/15 10:02:53;;;;;;;53.55;37.65;;;6.70;99.90;;;;;;5091749;28;20450;-83
2020/12/15 10:05:19;;;;;;;51.13;37.13;;;6.70;99.90;;;;;;5095411;28;20369;-81
2020/12/15 10:07:44;;;;;;;58.28;40.20;;;6.70;99.90;;;;;;5095474;28;20373;-81
2020/12/15 10:10:10;;;;;;;74.30;46.90;;;6.60;99.90;;;;;;5095894;28;20920;-82
2020/12/15 10:12:36;;;;;;;78.35;51.60;;;6.60;99.90;;;;;;5095459;28;20367;-81
2020/12/15 10:15:02;;;;;;;61.40;41.10;;;6.70;99.90;;;;;;5092478;28;20441;-83
2020/12/15 10:17:29;;;;;;;57.60;40.40;;;6.80;99.90;;;;;;5095213;28;20360;-83
2020/12/15 10:19:54;;;;;;;59.80;42.95;;;6.70;99.90;;;;;;5076622;28;20400;-83
2020/12/15 10:22:20;;;;;;;55.22;39.92;;;6.80;99.90;;;;;;5095191;28;20903;-79
2020/12/15 10:24:46;;;;;;;50.00;36.95;;;6.70;99.90;;;;;;5095039;28;20426;-83
2020/12/15 10:27:12;;;;;;;62.67;43.40;;;6.70;99.90;;;;;;5095049;28;20374;-82
2020/12/15 10:29:38;;;;;;;76.75;54.97;;;6.70;99.90;;;;;;5076844;28;20471;-85
2020/12/15 10:32:05;;;;;;;135.50;94.22;;;7.20;99.90;;;;;;5091950;28;20819;-83
2020/12/15 10:34:31;;;;;;;135.88;90.90;;;7.00;99.90;;;;;;5094602;28;20422;-84
2020/12/15 10:36:57;;;;;;;72.55;51.50;;;7.00;99.90;;;;;;5076738;28;20372;-83
2020/12/15 10:39:23;;;;;;;62.17;49.30;;;6.90;99.90;;;;;;5094844;28;20372;-83
2020/12/15 10:41:51;;;;;;;65.40;47.67;;;6.80;99.90;;;;;;5095130;28;20363;-84
2020/12/15 10:44:17;;;;;;;61.45;46.58;;;6.80;99.90;;;;;;5094742;28;20372;-83
2020/12/15 10:46:44;;;;;;;76.70;58.83;;;6.80;99.90;;;;;;5094654;28;20360;-83
2020/12/15 10:49:10;;;;;;;66.43;47.17;;;6.80;99.90;;;;;;5076127;28;20446;-83
2020/12/15 10:51:37;;;;;;;57.72;43.08;;;6.80;99.90;;;;;;5075706;28;20372;-83
2020/12/15 10:54:06;;;;;;;63.40;44.45;;;6.90;99.90;;;;;;5075861;28;20742;-84
2020/12/15 10:56:33;;;;;;;53.80;37.42;;;6.90;99.90;;;;;;5094232;28;20396;-84
2020/12/15 10:58:59;;;;;;;52.45;37.35;;;6.80;99.90;;;;;;5094576;28;21086;-84
2020/12/15 11:01:26;;;;;;;48.15;33.88;;;6.90;99.90;;;;;;5094181;28;20399;-83
2020/12/15 11:03:52;;;;;;;49.92;34.75;;;6.90;99.90;;;;;;5075808;28;20492;-83
2020/12/15 11:06:20;;;;;;;48.35;34.70;;;6.80;99.90;;;;;;5076140;28;20365;-85
2020/12/15 11:08:46;;;;;;;42.60;31.65;;;6.90;99.90;;;;;;5094055;28;20850;-82
2020/12/15 11:11:12;;;;;;;76.90;47.88;;;6.80;99.90;;;;;;5093858;28;20388;-83
2020/12/15 11:13:39;;;;;;;83.93;53.45;;;7.70;99.90;;;;;;5093854;28;20371;-81
2020/12/15 11:16:05;;;;;;;65.97;45.97;;;7.40;99.90;;;;;;5092821;28;20369;-80
2020/12/15 11:18:31;;;;;;;204.43;142.43;;;7.30;99.90;;;;;;5093896;28;20359;-80
2020/12/15 11:20:57;;;;;;;93.97;71.07;;;7.20;99.90;;;;;;5093152;28;20380;-80
2020/12/15 11:23:22;;;;;;;65.90;50.78;;;7.10;99.90;;;;;;5093481;28;20705;-80
2020/12/15 11:25:49;;;;;;;50.10;37.10;;;7.10;99.90;;;;;;5092958;28;20376;-80
2020/12/15 11:28:16;;;;;;;57.85;43.72;;;7.00;99.90;;;;;;5093207;28;20747;-80
2020/12/15 11:30:42;;;;;;;52.28;37.05;;;7.10;99.90;;;;;;5072377;28;20369;-81
2020/12/15 11:33:07;;;;;;;56.63;44.13;;;7.10;99.90;;;;;;5093052;28;20376;-80
2020/12/15 11:35:34;;;;;;;65.03;42.35;;;7.10;99.90;;;;;;5093239;28;20456;-80
2020/12/15 11:38:03;;;;;;;71.35;44.85;;;7.20;99.90;;;;;;5074891;28;20448;-80
2020/12/15 11:40:30;;;;;;;82.73;49.33;;;7.20;99.90;;;;;;5093194;28;20414;-80
2020/12/15 11:42:57;;;;;;;83.97;49.38;;;7.30;99.90;;;;;;5074558;28;20380;-80
2020/12/15 11:45:24;;;;;;;65.38;42.58;;;7.20;99.90;;;;;;5087984;28;20368;-82
2020/12/15 11:47:51;;;;;;;69.13;47.65;;;7.20;99.90;;;;;;5093354;28;20369;-82
2020/12/15 11:50:18;;;;;;;66.55;44.10;;;7.10;99.90;;;;;;5075138;28;20385;-84
2020/12/15 11:52:44;;;;;;;57.80;41.40;;;7.20;99.90;;;;;;5093096;28;20368;-82
2020/12/15 11:55:10;;;;;;;65.50;43.58;;;7.10;99.90;;;;;;5092936;28;20414;-81
2020/12/15 11:57:36;;;;;;;79.40;52.58;;;7.10;99.90;;;;;;5093406;28;20900;-81
2020/12/15 12:00:04;;;;;;;88.00;53.77;;;7.00;99.90;;;;;;5074966;28;20482;-81
2020/12/15 12:02:30;;;;;;;66.28;45.20;;;7.10;99.90;;;;;;5092849;28;20367;-84
2020/12/15 12:04:56;;;;;;;48.38;37.00;;;7.00;99.90;;;;;;5074432;28;20784;-82
2020/12/15 12:07:22;;;;;;;64.93;44.97;;;7.10;99.90;;;;;;5075085;28;20403;-84
2020/12/15 12:09:48;;;;;;;52.67;39.37;;;7.00;99.90;;;;;;5074419;28;20384;-84
2020/12/15 12:12:14;;;;;;;59.88;43.22;;;7.00;99.90;;;;;;5092550;28;20769;-83
2020/12/15 12:14:40;;;;;;;88.53;56.17;;;7.00;99.90;;;;;;5074133;28;20367;-81
2020/12/15 12:17:05;;;;;;;88.85;59.40;;;7.00;99.90;;;;;;5092433;28;20391;-83
2020/12/15 12:19:31;;;;;;;108.15;71.25;;;7.00;99.90;;;;;;5074182;28;20417;-84
2020/12/15 12:21:57;;;;;;;69.90;47.53;;;7.00;99.90;;;;;;5092276;28;21127;-83
2020/12/15 12:24:23;;;;;;;72.47;50.30;;;7.00;99.90;;;;;;5092444;28;20357;-84
2020/12/15 12:26:52;;;;;;;77.10;51.50;;;6.90;99.90;;;;;;5092211;28;20364;-84
2020/12/15 12:29:18;;;;;;;69.78;48.30;;;6.80;99.90;;;;;;5092772;28;20376;-84
2020/12/15 12:31:51;;;;;;;60.90;43.58;;;6.80;99.90;;;;;;5092663;28;20447;-83
2020/12/15 12:34:17;;;;;;;58.35;42.40;;;6.90;99.90;;;;;;5092352;28;20388;-81